< Cyclone 201414 2014 Season Cyclone 201416 >
Cyclone 201415 (Ita)
General InformationTrack Information on Google MapsDetailed Wind InformationList of All Images || ResourceGoogle EarthGE AnimationAtom FeedGeoJSON
Detalied Best Track (Time Zone = UTC)
Year Month Day Hour Lat. Long. Pressure (hPa) Wind (kt) Class Image Chart
2014 4 2 00 -10.5 158.9 1003 0 0 Image --
2014 4 2 06 -10.3 159.0 1003 0 0 Image --
2014 4 2 12 -10.1 158.7 1003 0 0 Image --
2014 4 2 18 -10.2 158.6 1003 0 0 Image --
2014 4 3 00 -10.8 158.8 1003 25 2 Image --
2014 4 3 06 -10.9 158.8 1001 25 2 Image --
2014 4 3 12 -10.4 158.5 1002 25 2 Image --
2014 4 3 18 -10.3 158.3 1001 25 2 Image --
2014 4 4 00 -10.9 158.0 1000 30 2 Image --
2014 4 4 06 -11.3 156.9 999 30 2 Image --
2014 4 4 12 -11.4 156.8 998.667 30 2 Image --
2014 4 4 18 -11.5 156.7 998.333 30 2 Image --
2014 4 5 00 -11.7 156.3 998 30 2 Image --
2014 4 5 06 -11.7 156.2 996 30 2 Image --
2014 4 5 12 -11.9 155.8 997 35 3 Image --
2014 4 5 18 -12.1 154.9 998 35 3 Image --
2014 4 6 00 -12.0 154.4 998 35 3 Image --
2014 4 6 06 -12.1 154.2 998 35 3 Image --
2014 4 6 12 -12.0 153.9 999 35 3 Image --
2014 4 6 18 -12.2 153.6 997 35 3 Image --
2014 4 7 00 -12.2 153.3 998 40 3 Image --
2014 4 7 06 -11.8 153.3 987 50 4 Image --
2014 4 7 12 -11.7 153.4 983 50 4 Image --
2014 4 7 18 -11.7 153.4 981 60 4 Image --
2014 4 8 00 -11.7 153.4 973 65 5 Image --
2014 4 8 06 -11.7 152.9 973 65 5 Image --
2014 4 8 12 -11.6 152.5 978 65 5 Image --
2014 4 8 18 -11.5 151.8 962 80 5 Image --
2014 4 9 00 -11.4 151.4 963 80 5 Image --
2014 4 9 06 -11.2 150.2 963 80 5 Image --
2014 4 9 12 -11.3 149.3 962 85 5 Image --
2014 4 9 18 -11.4 148.7 959 85 5 Image --
2014 4 10 00 -12.0 147.9 958 85 5 Image --
2014 4 10 06 -12.5 147.0 935 110 5 Image --
2014 4 10 12 -12.7 146.3 935 110 5 Image --
2014 4 10 18 -13.2 145.9 930 115 5 Image --
2014 4 11 00 -13.6 145.8 930 115 5 Image --
2014 4 11 06 -14.3 145.5 931 115 5 Image --
2014 4 11 12 -14.9 145.3 957 85 5 Image --
2014 4 11 18 -15.4 145.0 984 55 4 Image --
2014 4 12 00 -16.0 145.0 990 45 3 Image --
2014 4 12 06 -16.4 145.4 990 45 3 Image --
2014 4 12 12 -17.1 145.7 994 40 3 Image --
2014 4 12 18 -18.2 146.1 995 40 3 Image --
2014 4 13 00 -19.1 147.0 995 40 3 Image --
2014 4 13 06 -20.0 148.4 995 35 3 Image --
2014 4 13 12 -20.7 150.2 994 40 3 Image --
2014 4 13 18 -21.7 151.8 993 45 3 Image --
2014 4 14 00 -22.2 152.8 994 45 3 Image --
2014 4 14 06 -23.6 155.1 992 50 4 Image --
2014 4 14 12 -24.5 156.8 992 0 0 Image --
< Cyclone 201414 2014 Season Cyclone 201416 >

Help